Portada
METAR-TAF:

METAR-TAF

Aeroports :

Chulitna, Alaska, Estats Units d'Amèrica

latitud: 62-53N, longitud: 149-50W, altitud: 381 m

Observació

L'informe es va fer fa 8 hores i 11 minuts, a les 01:47 UTC
Vent calma
Temperatura -3°C
Humitat 80%
Pressió 1006 hPa
Visibilitat: 16.1 km
Núvols disperses a una alçada de 3000 ft

METAR: PAEC 150147Z 00000KT 10SM SCT030 M03/M06 A2970 RMK NOSPECI LAST

Hora: 00:58 (09:58 UTC)


TAF: manca

Observacions i pronòstics meteorològics de més de 4000 aeroports (METAR i TAF).

Les estacions disponibles són els punts grocs i vermells al mapa.

Posi el ratolí al punt desitjat per veure el nom de l'estació.

Feu clic per veure les observacions i els pronòstics meteorològics.

Per canviar el mapa: feu clic els botons verds amb una creu de color negre per apropar; al botó verd amb un guió per allunyar la imatge; o en les fletxes verdes per a mapes adjacents.


METAR-TAF: